Time;durP1;ratioP1;P1;durP2;ratioP2;P2;SDS_P1;SDS_P2;PMS_P1;PMS_P2;Temp;Humidity;BMP_temperature;BMP_pressure;BME280_temperature;BME280_humidity;BME280_pressure;Samples;Min_cycle;Max_cycle;Signal;HPM_P1;HPM_P2
2023/08/02 00:00:19;;;;;;;4.00;1.60;;;;;;;15.06;98.37;95612.23;107718;1285;22634;-75
2023/08/02 00:03:10;;;;;;;1.80;1.20;;;;;;;15.07;98.38;95603.25;107718;1285;25294;-74
2023/08/02 00:05:41;;;;;;;2.30;1.10;;;;;;;15.07;98.48;95607.39;107750;1285;22559;-74
2023/08/02 00:08:12;;;;;;;1.40;1.30;;;;;;;15.08;98.50;95601.86;107737;1285;22632;-74
2023/08/02 00:10:43;;;;;;;1.90;1.30;;;;;;;15.08;98.49;95596.20;107744;1285;24297;-74
2023/08/02 00:13:15;;;;;;;1.90;1.30;;;;;;;15.08;98.53;95597.11;107730;1285;22538;-75
2023/08/02 00:15:46;;;;;;;1.60;1.40;;;;;;;15.07;98.62;95596.31;107741;1280;22579;-75
2023/08/02 00:18:18;;;;;;;1.30;1.10;;;;;;;15.06;98.67;95598.04;107740;1285;22539;-74
2023/08/02 00:20:50;;;;;;;2.50;1.90;;;;;;;15.07;98.72;95607.36;107709;1285;23016;-75
2023/08/02 00:23:21;;;;;;;1.50;1.10;;;;;;;15.07;98.84;95603.41;107757;1285;22533;-74
2023/08/02 00:25:53;;;;;;;2.10;1.70;;;;;;;15.06;98.70;95600.06;107797;1285;24267;-74
2023/08/02 00:28:24;;;;;;;1.90;1.20;;;;;;;15.06;98.85;95605.41;107813;1285;25409;-74
2023/08/02 00:30:55;;;;;;;2.60;1.70;;;;;;;15.06;98.82;95607.86;107816;1278;22536;-74
2023/08/02 00:33:26;;;;;;;2.90;1.90;;;;;;;15.07;98.80;95602.64;107799;1284;22531;-75
2023/08/02 00:35:57;;;;;;;1.90;1.50;;;;;;;15.08;98.79;95599.94;107797;1285;22529;-74
2023/08/02 00:38:29;;;;;;;2.80;1.30;;;;;;;15.08;98.82;95596.73;107824;1285;22541;-75
2023/08/02 00:41:05;;;;;;;2.30;1.50;;;;;;;15.08;98.80;95598.17;107783;1285;26531;-75
2023/08/02 00:43:42;;;;;;;2.40;1.80;;;;;;;15.06;98.79;95606.05;107839;1283;24306;-74
2023/08/02 00:46:16;;;;;;;3.00;1.50;;;;;;;15.07;98.99;95609.05;107805;1285;22615;-74
2023/08/02 00:48:47;;;;;;;1.70;1.30;;;;;;;15.06;98.98;95618.00;107826;1284;22549;-74
2023/08/02 00:51:20;;;;;;;3.70;1.60;;;;;;;15.05;99.05;95624.91;107808;1285;25249;-74
2023/08/02 00:53:52;;;;;;;1.30;1.20;;;;;;;15.06;99.03;95625.32;107828;1283;24290;-75
2023/08/02 00:56:23;;;;;;;2.00;1.30;;;;;;;15.05;99.02;95621.11;107790;1285;22539;-74
2023/08/02 00:58:54;;;;;;;2.00;1.40;;;;;;;15.07;99.01;95620.36;107760;1283;23054;-75
2023/08/02 01:01:26;;;;;;;2.20;1.50;;;;;;;15.07;98.80;95631.41;107814;1285;22659;-74
2023/08/02 01:03:59;;;;;;;2.20;1.70;;;;;;;15.09;98.83;95633.29;107810;1285;22527;-74
2023/08/02 01:06:34;;;;;;;2.00;1.30;;;;;;;15.10;98.88;95627.92;107790;1284;22534;-74
2023/08/02 01:09:09;;;;;;;2.90;1.60;;;;;;;15.12;98.85;95633.30;107781;1285;22546;-75
2023/08/02 01:11:44;;;;;;;2.30;1.50;;;;;;;15.10;98.80;95628.67;107821;1284;22537;-74
2023/08/02 01:14:19;;;;;;;2.10;1.50;;;;;;;15.10;98.76;95632.11;107765;1277;25313;-74
2023/08/02 01:16:52;;;;;;;2.90;1.60;;;;;;;15.08;98.72;95633.42;107769;1284;22582;-75
2023/08/02 01:19:25;;;;;;;1.90;1.70;;;;;;;15.08;98.83;95629.52;107703;1282;22889;-74
2023/08/02 01:21:56;;;;;;;2.50;1.40;;;;;;;15.07;98.80;95631.02;107819;1284;22559;-75
2023/08/02 01:24:31;;;;;;;2.80;1.80;;;;;;;15.06;98.84;95632.10;107797;1284;22952;-75
2023/08/02 01:27:06;;;;;;;4.40;1.80;;;;;;;15.07;98.91;95628.90;107792;1285;23856;-74
2023/08/02 01:29:43;;;;;;;2.50;1.90;;;;;;;15.09;98.86;95631.15;107770;1284;22670;-74
2023/08/02 01:32:15;;;;;;;3.10;2.00;;;;;;;15.10;98.86;95631.58;107791;1281;24227;-74
2023/08/02 01:34:46;;;;;;;2.50;1.60;;;;;;;15.10;98.86;95633.10;107725;1270;22663;-74
2023/08/02 01:37:17;;;;;;;1.90;1.40;;;;;;;15.10;98.95;95637.15;107764;1284;22534;-75
2023/08/02 01:39:48;;;;;;;3.40;1.80;;;;;;;15.13;99.20;95637.09;107780;1281;22547;-74
2023/08/02 01:42:21;;;;;;;3.60;2.10;;;;;;;15.13;99.18;95639.31;107808;1284;23003;-74
2023/08/02 01:44:52;;;;;;;2.10;1.50;;;;;;;15.11;99.07;95639.09;107756;1284;25257;-75
2023/08/02 01:47:23;;;;;;;1.80;1.50;;;;;;;15.09;98.94;95637.20;107775;1285;25341;-74
2023/08/02 01:49:54;;;;;;;3.00;1.60;;;;;;;15.08;99.00;95641.73;107801;1278;22534;-74
2023/08/02 01:52:25;;;;;;;2.70;1.70;;;;;;;15.07;99.19;95644.52;107757;1285;22534;-74
2023/08/02 01:54:56;;;;;;;2.10;1.50;;;;;;;15.07;99.28;95650.70;107776;1277;22593;-74
2023/08/02 01:57:27;;;;;;;2.90;1.80;;;;;;;15.03;98.93;95648.93;107798;1283;23108;-74
2023/08/02 01:59:58;;;;;;;2.70;1.50;;;;;;;14.96;98.97;95650.02;107752;1285;22583;-74
2023/08/02 02:02:29;;;;;;;2.60;1.70;;;;;;;14.92;99.10;95647.20;107774;1285;23360;-74
2023/08/02 02:05:00;;;;;;;1.90;1.60;;;;;;;14.91;99.22;95647.60;107790;1285;22637;-74
2023/08/02 02:07:31;;;;;;;2.50;1.70;;;;;;;14.93;99.40;95652.25;107820;1284;22566;-74
2023/08/02 02:10:02;;;;;;;2.30;1.80;;;;;;;14.95;99.43;95652.40;107759;1285;22556;-74
2023/08/02 02:12:33;;;;;;;2.80;1.90;;;;;;;14.95;99.36;95656.00;107755;1285;22563;-74
2023/08/02 02:15:07;;;;;;;4.10;2.00;;;;;;;14.96;99.42;95658.31;107808;1285;22533;-74
2023/08/02 02:17:40;;;;;;;2.80;1.90;;;;;;;15.00;99.50;95663.17;107793;1285;22530;-74
2023/08/02 02:20:13;;;;;;;2.20;1.60;;;;;;;15.03;99.59;95658.63;107744;1285;22808;-74
2023/08/02 02:22:44;;;;;;;1.90;1.70;;;;;;;15.06;99.64;95658.89;107803;1279;22551;-74
2023/08/02 02:25:18;;;;;;;3.20;1.90;;;;;;;15.07;99.60;95660.69;107778;1285;22556;-74
2023/08/02 02:27:49;;;;;;;8.00;2.20;;;;;;;15.06;99.64;95665.67;107760;1285;22545;-74
2023/08/02 02:30:20;;;;;;;4.90;1.80;;;;;;;15.05;99.73;95669.38;107765;1285;33007;-74
2023/08/02 02:32:52;;;;;;;3.20;1.50;;;;;;;15.05;99.70;95670.66;107791;1285;22595;-74
2023/08/02 02:35:23;;;;;;;3.20;1.70;;;;;;;15.05;99.86;95670.77;107807;1280;22555;-74
2023/08/02 02:37:54;;;;;;;2.70;1.70;;;;;;;15.05;99.77;95670.05;107806;1285;25387;-74
2023/08/02 02:40:26;;;;;;;4.40;2.00;;;;;;;15.04;99.70;95664.77;107757;1282;22976;-74
2023/08/02 02:42:56;;;;;;;2.30;1.90;;;;;;;15.04;99.72;95666.82;107772;1283;22782;-74
2023/08/02 02:45:27;;;;;;;3.60;2.20;;;;;;;15.02;99.55;95666.59;107795;1285;25277;-74
2023/08/02 02:47:58;;;;;;;3.90;2.10;;;;;;;15.00;99.49;95667.45;107796;1278;22538;-74
2023/08/02 02:50:30;;;;;;;3.90;2.40;;;;;;;15.00;99.45;95669.73;107763;1285;22538;-74
2023/08/02 02:53:01;;;;;;;3.30;2.10;;;;;;;14.99;99.27;95667.64;107789;1277;22549;-74
2023/08/02 02:55:33;;;;;;;1.90;1.70;;;;;;;14.98;99.16;95672.26;107800;1285;22540;-74
2023/08/02 02:58:04;;;;;;;3.10;2.20;;;;;;;14.97;99.12;95683.73;107796;1285;22554;-74
2023/08/02 03:00:35;;;;;;;4.20;2.50;;;;;;;14.95;99.03;95687.27;107773;1281;22542;-74
2023/08/02 03:03:06;;;;;;;2.60;2.10;;;;;;;14.96;99.00;95688.42;107780;1277;22640;-74
2023/08/02 03:05:40;;;;;;;3.80;2.50;;;;;;;14.97;99.09;95691.74;107800;1282;22568;-74
2023/08/02 03:08:11;;;;;;;5.50;2.90;;;;;;;14.99;99.01;95691.90;107795;1283;22575;-74
2023/08/02 03:10:42;;;;;;;2.40;2.20;;;;;;;15.02;99.09;95693.83;107759;1285;22540;-74
2023/08/02 03:13:14;;;;;;;3.90;2.10;;;;;;;15.05;99.18;95698.18;107769;1280;24231;-74
2023/08/02 03:15:45;;;;;;;2.30;2.00;;;;;;;15.06;99.16;95700.16;107805;1285;24262;-74
2023/08/02 03:18:15;;;;;;;3.10;2.00;;;;;;;15.08;99.17;95702.14;107798;1285;22557;-75
2023/08/02 03:20:46;;;;;;;3.60;2.30;;;;;;;15.09;99.01;95700.70;107728;1285;22538;-74
2023/08/02 03:23:17;;;;;;;2.30;1.90;;;;;;;15.08;98.90;95702.23;107912;1285;22530;-75
2023/08/02 03:25:48;;;;;;;3.30;2.10;;;;;;;15.06;98.91;95705.26;107915;1284;22541;-74
2023/08/02 03:28:19;;;;;;;2.90;2.30;;;;;;;15.05;98.88;95709.33;107775;1285;22565;-74
2023/08/02 03:30:50;;;;;;;2.20;1.90;;;;;;;15.03;98.82;95709.41;107732;1285;24923;-75
2023/08/02 03:33:21;;;;;;;5.60;2.50;;;;;;;15.00;98.95;95711.77;107808;1285;22541;-75
2023/08/02 03:35:52;;;;;;;3.70;2.10;;;;;;;15.00;98.94;95715.57;107789;1284;22530;-74
2023/08/02 03:38:23;;;;;;;2.70;2.00;;;;;;;15.00;99.05;95714.66;107812;1285;24233;-75
2023/08/02 03:40:55;;;;;;;4.20;2.30;;;;;;;15.00;99.12;95719.22;107762;1285;25268;-74
2023/08/02 03:43:26;;;;;;;2.40;1.80;;;;;;;15.02;99.43;95717.52;107797;1285;22538;-74
2023/08/02 03:45:57;;;;;;;2.60;2.10;;;;;;;15.03;99.50;95717.64;107788;1278;22573;-74
2023/08/02 03:48:28;;;;;;;4.00;2.10;;;;;;;15.02;99.40;95721.29;107811;1285;22537;-74
2023/08/02 03:51:00;;;;;;;5.10;2.60;;;;;;;15.05;99.48;95716.96;107755;1285;22554;-74
2023/08/02 03:53:32;;;;;;;3.00;2.10;;;;;;;15.07;99.35;95715.30;107800;1282;22528;-74
2023/08/02 03:56:03;;;;;;;2.70;2.10;;;;;;;15.10;99.30;95711.21;107800;1284;22555;-74
2023/08/02 03:58:35;;;;;;;2.90;2.30;;;;;;;15.16;99.33;95714.13;107799;1285;26529;-74
2023/08/02 04:01:06;;;;;;;3.10;2.30;;;;;;;15.20;99.35;95715.13;107789;1285;24989;-74
2023/08/02 04:03:37;;;;;;;5.20;2.20;;;;;;;15.24;99.28;95716.52;107782;1285;22523;-74
2023/08/02 04:06:09;;;;;;;3.20;2.50;;;;;;;15.26;98.97;95719.13;107757;1280;22552;-74
2023/08/02 04:08:40;;;;;;;3.70;2.60;;;;;;;15.25;98.74;95714.02;107781;1285;22531;-74
2023/08/02 04:11:11;;;;;;;3.30;2.40;;;;;;;15.27;98.64;95719.42;107787;1284;22560;-74
2023/08/02 04:13:43;;;;;;;2.60;2.30;;;;;;;15.30;98.60;95721.95;107792;1285;22538;-74
2023/08/02 04:16:14;;;;;;;3.00;2.60;;;;;;;15.34;98.47;95715.94;107791;1285;22520;-75
2023/08/02 04:18:45;;;;;;;3.20;2.40;;;;;;;15.38;98.29;95718.48;107775;1285;22995;-74
2023/08/02 04:21:20;;;;;;;4.10;2.50;;;;;;;15.40;98.12;95714.20;107773;1285;25107;-75
2023/08/02 04:23:52;;;;;;;3.50;2.20;;;;;;;15.46;98.09;95716.23;107783;1278;22575;-74
2023/08/02 04:26:23;;;;;;;4.30;2.10;;;;;;;15.53;97.87;95717.07;107781;1285;22642;-74
2023/08/02 04:28:54;;;;;;;3.60;2.70;;;;;;;15.57;97.69;95721.47;107757;1285;22558;-74
2023/08/02 04:31:25;;;;;;;5.20;2.60;;;;;;;15.61;97.46;95721.01;107801;1280;22527;-74
2023/08/02 04:33:58;;;;;;;2.30;2.10;;;;;;;15.65;97.31;95720.64;107806;1280;22637;-74
2023/08/02 04:36:31;;;;;;;3.70;2.50;;;;;;;15.69;97.19;95724.20;107818;1285;22538;-74
2023/08/02 04:39:03;;;;;;;4.70;2.90;;;;;;;15.74;97.07;95725.52;107773;1280;23130;-74
2023/08/02 04:41:35;;;;;;;3.80;2.20;;;;;;;15.76;96.70;95721.45;107827;1284;22525;-74
2023/08/02 04:44:06;;;;;;;3.10;2.50;;;;;;;15.78;96.42;95724.58;107781;1285;22520;-74
2023/08/02 04:46:37;;;;;;;4.20;2.40;;;;;;;15.79;96.10;95719.64;107632;1284;209305;-74
2023/08/02 04:49:08;;;;;;;3.60;2.30;;;;;;;15.80;96.04;95725.09;107779;1282;25390;-74
2023/08/02 04:51:39;;;;;;;3.60;2.20;;;;;;;15.86;96.05;95729.63;107829;1283;22530;-74
2023/08/02 04:54:10;;;;;;;4.60;2.40;;;;;;;16.03;96.46;95729.50;107807;1285;22534;-74
2023/08/02 04:56:41;;;;;;;3.20;2.20;;;;;;;16.41;96.55;95726.53;107817;1283;22530;-74
2023/08/02 04:59:13;;;;;;;3.90;2.00;;;;;;;16.44;94.80;95725.09;107783;1284;22519;-74
2023/08/02 05:01:44;;;;;;;3.40;2.00;;;;;;;16.67;96.54;95730.77;107769;1285;22528;-74
2023/08/02 05:04:15;;;;;;;3.30;2.30;;;;;;;17.97;97.98;95727.10;107771;1278;22554;-75
2023/08/02 05:06:46;;;;;;;2.70;2.00;;;;;;;19.32;95.72;95732.34;107779;1285;23909;-75
2023/08/02 05:09:17;;;;;;;2.10;1.90;;;;;;;20.41;92.47;95733.05;107773;1280;22550;-74
2023/08/02 05:11:48;;;;;;;1.90;1.70;;;;;;;21.33;89.49;95731.56;107806;1285;22566;-75
2023/08/02 05:14:20;;;;;;;2.00;1.60;;;;;;;22.04;86.67;95732.20;107809;1285;24924;-75
2023/08/02 05:16:51;;;;;;;2.10;1.90;;;;;;;22.47;82.47;95737.63;107793;1280;23321;-74
2023/08/02 05:19:22;;;;;;;2.50;2.20;;;;;;;22.88;81.24;95742.20;107732;1285;22537;-75
2023/08/02 05:21:53;;;;;;;3.10;1.80;;;;;;;23.44;78.80;95752.73;107800;1285;22541;-75
2023/08/02 05:24:24;;;;;;;3.60;2.60;;;;;;;23.69;76.60;95756.23;107819;1285;25296;-75
2023/08/02 05:26:55;;;;;;;2.60;1.60;;;;;;;24.14;75.10;95755.73;107828;1285;22533;-75
2023/08/02 05:29:26;;;;;;;1.70;1.60;;;;;;;24.33;73.01;95759.16;107848;1283;25326;-75
2023/08/02 05:31:57;;;;;;;3.00;1.80;;;;;;;24.05;71.48;95761.67;107840;1285;22535;-75
2023/08/02 05:34:28;;;;;;;1.80;1.50;;;;;;;23.73;70.74;95763.16;107819;1280;22688;-75
2023/08/02 05:36:59;;;;;;;3.60;2.00;;;;;;;22.94;69.93;95749.64;107814;1285;22530;-75
2023/08/02 05:39:30;;;;;;;2.40;1.90;;;;;;;23.13;71.67;95746.11;107790;1285;22652;-75
2023/08/02 05:42:01;;;;;;;2.20;1.80;;;;;;;23.89;70.74;95747.73;107792;1283;23093;-75
2023/08/02 05:44:36;;;;;;;3.40;1.90;;;;;;;24.50;68.66;95747.07;107790;1285;22957;-75
2023/08/02 05:47:10;;;;;;;2.20;1.80;;;;;;;23.54;66.29;95756.14;107846;1285;22539;-75
2023/08/02 05:49:43;;;;;;;2.00;1.70;;;;;;;22.86;67.06;95758.41;107771;1280;31083;-75
2023/08/02 05:52:15;;;;;;;2.10;1.80;;;;;;;22.07;66.64;95760.36;107808;1285;22569;-75
2023/08/02 05:54:46;;;;;;;2.90;1.80;;;;;;;21.68;67.58;95757.45;107826;1284;23169;-75
2023/08/02 05:57:17;;;;;;;2.00;1.60;;;;;;;20.98;67.56;95761.24;107803;1285;22531;-75
2023/08/02 05:59:50;;;;;;;2.40;1.80;;;;;;;20.23;67.84;95770.89;107788;1285;22568;-75
2023/08/02 06:02:21;;;;;;;3.00;2.00;;;;;;;19.52;69.12;95776.10;107807;1280;22528;-75
2023/08/02 06:04:53;;;;;;;5.00;2.30;;;;;;;19.19;70.48;95778.61;107827;1280;22646;-75
2023/08/02 06:07:24;;;;;;;4.20;2.20;;;;;;;18.90;71.30;95776.26;107804;1285;22533;-75
2023/08/02 06:09:55;;;;;;;3.40;2.00;;;;;;;18.75;72.40;95776.56;107833;1285;24330;-74
2023/08/02 06:12:26;;;;;;;2.60;2.20;;;;;;;18.77;73.48;95774.06;107809;1285;22674;-75
2023/08/02 06:14:57;;;;;;;3.10;2.20;;;;;;;18.79;73.91;95772.41;107813;1278;22542;-75
2023/08/02 06:17:31;;;;;;;3.60;2.10;;;;;;;18.96;74.92;95774.33;107845;1285;23942;-75
2023/08/02 06:20:02;;;;;;;3.70;2.20;;;;;;;19.86;76.29;95778.96;107805;1278;23740;-75
2023/08/02 06:22:33;;;;;;;2.70;1.90;;;;;;;20.95;75.87;95776.59;107797;1285;22534;-75
2023/08/02 06:25:10;;;;;;;2.40;2.00;;;;;;;22.20;74.18;95777.38;107783;1280;22536;-75
2023/08/02 06:27:41;;;;;;;4.10;2.10;;;;;;;22.61;72.38;95777.08;107806;1285;22534;-75
2023/08/02 06:30:14;;;;;;;2.40;2.00;;;;;;;22.66;70.29;95777.20;107830;1282;25350;-75
2023/08/02 06:32:45;;;;;;;4.50;2.20;;;;;;;22.21;70.07;95780.40;107873;1284;22543;-75
2023/08/02 06:35:17;;;;;;;4.50;2.50;;;;;;;22.56;70.46;95776.82;107799;1285;22527;-75
2023/08/02 06:37:48;;;;;;;2.10;1.70;;;;;;;22.68;68.48;95777.36;107820;1285;22532;-75
2023/08/02 06:40:19;;;;;;;2.30;1.90;;;;;;;22.19;68.03;95779.99;107795;1285;22536;-75
2023/08/02 06:42:50;;;;;;;2.00;1.80;;;;;;;21.66;67.80;95782.64;107829;1285;22534;-76
2023/08/02 06:45:22;;;;;;;2.50;2.00;;;;;;;21.61;68.50;95785.59;107804;1285;22554;-76
2023/08/02 06:47:53;;;;;;;2.60;1.90;;;;;;;21.58;68.83;95788.02;107859;1282;22571;-75
2023/08/02 06:50:24;;;;;;;3.80;1.60;;;;;;;22.67;70.68;95789.91;107809;1280;26637;-75
2023/08/02 06:52:55;;;;;;;2.10;1.80;;;;;;;23.47;68.15;95790.46;107837;1285;25252;-75
2023/08/02 06:55:28;;;;;;;2.00;1.80;;;;;;;24.17;67.72;95792.27;107816;1285;22521;-75
2023/08/02 06:57:59;;;;;;;2.40;1.80;;;;;;;25.12;66.96;95791.41;107809;1285;22587;-75
2023/08/02 07:00:32;;;;;;;3.70;1.90;;;;;;;25.10;64.36;95792.58;107817;1285;24012;-76
2023/08/02 07:03:05;;;;;;;2.60;1.90;;;;;;;24.11;63.43;95797.59;107859;1278;22533;-76
2023/08/02 07:05:38;;;;;;;3.30;2.00;;;;;;;24.44;64.84;95799.01;107830;1283;22545;-75
2023/08/02 07:08:09;;;;;;;2.90;2.20;;;;;;;25.05;63.22;95805.95;107865;1279;22731;-76
2023/08/02 07:10:40;;;;;;;3.40;1.70;;;;;;;24.95;62.01;95811.38;107840;1285;22619;-75
2023/08/02 07:13:11;;;;;;;2.50;2.10;;;;;;;25.07;61.48;95808.64;107836;1285;22531;-75
2023/08/02 07:15:42;;;;;;;4.00;2.10;;;;;;;24.21;60.64;95812.92;107835;1285;25332;-76
2023/08/02 07:18:14;;;;;;;2.80;2.00;;;;;;;24.09;61.93;95811.44;107852;1285;23065;-76
2023/08/02 07:20:46;;;;;;;2.60;2.00;;;;;;;24.97;62.38;95807.79;107798;1285;22544;-76
2023/08/02 07:23:18;;;;;;;5.30;1.80;;;;;;;25.69;61.41;95806.18;107841;1285;24299;-76
2023/08/02 07:25:52;;;;;;;2.50;1.80;;;;;;;26.47;60.76;95805.48;107857;1281;22544;-76
2023/08/02 07:28:23;;;;;;;3.40;2.00;;;;;;;27.32;59.51;95802.81;107820;1285;22552;-76
2023/08/02 07:30:54;;;;;;;2.30;1.80;;;;;;;27.10;57.92;95805.14;107820;1285;24326;-76
2023/08/02 07:33:26;;;;;;;2.50;1.90;;;;;;;26.04;57.26;95812.66;107834;1284;22547;-76
2023/08/02 07:35:57;;;;;;;3.10;1.70;;;;;;;25.33;57.91;95815.86;107831;1285;22548;-75
2023/08/02 07:38:29;;;;;;;3.70;1.80;;;;;;;25.74;59.32;95818.71;107822;1285;22878;-76
2023/08/02 07:41:04;;;;;;;2.60;1.80;;;;;;;26.55;59.18;95818.06;107811;1285;22548;-75
2023/08/02 07:43:35;;;;;;;2.70;1.80;;;;;;;27.25;58.70;95815.17;107860;1277;25267;-75
2023/08/02 07:46:06;;;;;;;3.70;1.80;;;;;;;27.70;57.40;95818.24;107829;1285;22630;-75
2023/08/02 07:48:38;;;;;;;2.00;1.80;;;;;;;27.70;56.68;95818.95;107858;1283;22542;-76
2023/08/02 07:51:10;;;;;;;3.10;2.20;;;;;;;27.44;55.96;95823.44;107819;1280;22565;-75
2023/08/02 07:53:41;;;;;;;3.40;2.10;;;;;;;26.67;55.67;95827.84;107834;1283;22497;-76
2023/08/02 07:56:12;;;;;;;2.70;1.90;;;;;;;26.03;55.14;95827.58;107843;1284;22708;-76
2023/08/02 07:58:43;;;;;;;2.60;1.80;;;;;;;25.95;55.98;95827.33;107849;1285;25455;-76
2023/08/02 08:01:14;;;;;;;2.80;2.10;;;;;;;25.83;56.04;95827.00;107815;1285;22560;-75
2023/08/02 08:03:45;;;;;;;3.70;2.10;;;;;;;25.47;56.19;95823.64;107828;1278;22574;-75
2023/08/02 08:06:20;;;;;;;2.50;1.90;;;;;;;24.61;55.63;95827.42;107822;1285;22638;-76
2023/08/02 08:08:54;;;;;;;2.50;2.00;;;;;;;24.13;56.37;95828.39;107771;1280;22580;-76
2023/08/02 08:11:29;;;;;;;3.30;1.70;;;;;;;23.87;56.51;95823.46;107843;1285;24386;-76
2023/08/02 08:14:01;;;;;;;1.90;1.70;;;;;;;23.24;56.55;95826.29;107839;1285;24277;-75
2023/08/02 08:16:32;;;;;;;2.80;1.80;;;;;;;22.87;57.33;95820.29;107844;1280;22627;-75
2023/08/02 08:19:04;;;;;;;2.10;1.60;;;;;;;22.82;57.98;95821.64;107769;1285;24002;-76
2023/08/02 08:21:36;;;;;;;2.40;1.70;;;;;;;22.67;57.99;95825.38;107858;1283;25426;-76
2023/08/02 08:24:09;;;;;;;1.90;1.60;;;;;;;22.42;57.93;95834.36;107837;1285;25305;-76
2023/08/02 08:26:40;;;;;;;1.80;1.60;;;;;;;22.77;58.33;95827.38;107781;1280;22547;-76
2023/08/02 08:29:11;;;;;;;2.10;1.80;;;;;;;23.44;58.32;95832.10;107775;1280;22545;-76
2023/08/02 08:31:42;;;;;;;1.80;1.60;;;;;;;23.94;57.09;95830.59;107860;1283;22706;-76
2023/08/02 08:34:14;;;;;;;3.70;1.70;;;;;;;24.21;56.60;95830.34;107826;1285;22540;-76
2023/08/02 08:36:45;;;;;;;2.80;1.70;;;;;;;24.85;56.75;95821.06;107849;1284;24385;-76
2023/08/02 08:39:18;;;;;;;2.40;1.50;;;;;;;25.10;55.38;95810.59;107845;1285;26563;-75
2023/08/02 08:41:49;;;;;;;3.30;1.70;;;;;;;25.03;54.57;95812.45;107811;1285;23851;-75
2023/08/02 08:44:21;;;;;;;2.30;1.50;;;;;;;25.27;55.77;95808.66;107822;1278;22530;-76
2023/08/02 08:46:55;;;;;;;2.10;1.60;;;;;;;25.80;55.06;95801.10;107832;1285;24455;-75
2023/08/02 08:49:26;;;;;;;2.50;2.00;;;;;;;25.84;54.04;95801.55;107802;1285;25327;-76
2023/08/02 08:52:03;;;;;;;1.50;1.40;;;;;;;26.06;53.88;95806.61;107840;1279;22530;-76
2023/08/02 08:54:38;;;;;;;3.00;1.70;;;;;;;26.17;53.25;95807.23;107832;1284;22520;-76
2023/08/02 08:57:11;;;;;;;2.10;1.80;;;;;;;25.68;52.45;95807.83;107833;1285;22710;-76
2023/08/02 08:59:43;;;;;;;3.40;2.00;;;;;;;24.95;52.96;95809.89;107826;1284;22574;-76
2023/08/02 09:02:15;;;;;;;3.50;1.90;;;;;;;25.19;54.34;95809.47;107842;1277;22528;-76
2023/08/02 09:04:47;;;;;;;3.00;1.80;;;;;;;25.60;54.04;95806.45;107824;1280;22524;-76
2023/08/02 09:07:18;;;;;;;2.70;1.70;;;;;;;25.93;53.92;95804.68;107860;1284;22544;-76
2023/08/02 09:09:50;;;;;;;3.00;1.70;;;;;;;25.86;52.99;95799.59;107827;1283;22527;-76
2023/08/02 09:12:21;;;;;;;2.10;1.60;;;;;;;25.57;52.44;95795.91;107840;1285;22592;-76
2023/08/02 09:15:04;;;;;;;1.90;1.50;;;;;;;25.18;52.77;95803.42;107840;1284;22527;-76
2023/08/02 09:17:47;;;;;;;3.10;1.60;;;;;;;25.02;52.56;95803.99;107807;1283;22565;-76
2023/08/02 09:20:21;;;;;;;2.20;1.80;;;;;;;24.81;52.88;95806.66;107725;1278;22552;-76
2023/08/02 09:22:53;;;;;;;2.30;2.10;;;;;;;24.40;53.02;95804.21;107870;1285;22534;-76
2023/08/02 09:25:27;;;;;;;3.10;2.20;;;;;;;24.24;53.72;95802.95;107816;1277;22538;-75
2023/08/02 09:28:00;;;;;;;4.40;3.30;;;;;;;24.09;53.98;95802.61;107818;1283;22581;-75
2023/08/02 09:30:33;;;;;;;4.50;2.80;;;;;;;23.77;54.11;95803.64;107808;1283;22605;-76
2023/08/02 09:33:06;;;;;;;3.00;2.40;;;;;;;23.55;54.74;95801.85;107870;1285;22567;-76
2023/08/02 09:35:51;;;;;;;2.20;1.60;;;;;;;23.47;54.26;95796.25;107861;1285;22553;-75
2023/08/02 09:38:23;;;;;;;1.80;1.60;;;;;;;23.36;54.78;95791.64;107834;1267;24295;-75
2023/08/02 09:40:56;;;;;;;2.00;1.60;;;;;;;23.27;55.44;95795.33;107812;1285;22557;-75
2023/08/02 09:43:27;;;;;;;3.90;1.50;;;;;;;23.28;56.04;95791.92;107840;1280;25252;-75
2023/08/02 09:45:59;;;;;;;2.00;1.50;;;;;;;23.35;55.76;95791.88;107824;1283;22598;-76
2023/08/02 09:48:39;;;;;;;1.70;1.60;;;;;;;23.10;55.31;95795.31;107841;1279;22559;-75
2023/08/02 09:51:11;;;;;;;2.30;2.10;;;;;;;22.89;55.92;95794.11;107808;1280;22657;-76
2023/08/02 09:53:53;;;;;;;2.00;1.50;;;;;;;22.98;56.54;95791.70;107840;1283;22595;-76
2023/08/02 09:56:26;;;;;;;2.30;1.80;;;;;;;22.81;56.08;95788.80;107830;1284;22573;-76
2023/08/02 09:58:59;;;;;;;1.30;1.20;;;;;;;22.56;55.99;95798.12;107814;1285;22527;-76
2023/08/02 10:01:31;;;;;;;2.80;1.80;;;;;;;22.38;56.20;95795.36;107852;1285;22535;-76
2023/08/02 10:04:07;;;;;;;2.10;1.60;;;;;;;22.27;56.04;95783.17;107801;1280;25563;-75
2023/08/02 10:06:44;;;;;;;2.30;1.60;;;;;;;22.23;56.06;95787.29;107825;1285;22591;-75
2023/08/02 10:09:21;;;;;;;1.90;1.60;;;;;;;22.30;56.55;95783.41;107815;1277;24264;-75
2023/08/02 10:11:58;;;;;;;2.30;1.50;;;;;;;22.46;56.40;95774.82;107829;1285;25373;-75
2023/08/02 10:14:32;;;;;;;3.10;1.70;;;;;;;22.69;56.24;95776.52;107843;1277;22581;-75
2023/08/02 10:17:05;;;;;;;2.00;1.80;;;;;;;22.90;56.31;95773.34;107841;1284;22558;-76
2023/08/02 10:19:37;;;;;;;2.00;1.70;;;;;;;23.06;56.10;95772.04;107783;1283;23781;-76
2023/08/02 10:22:09;;;;;;;1.80;1.60;;;;;;;23.17;56.02;95772.86;107853;1285;22548;-75
2023/08/02 10:24:44;;;;;;;2.80;1.60;;;;;;;22.91;55.31;95771.11;107801;1285;22548;-76
2023/08/02 10:27:17;;;;;;;1.80;1.50;;;;;;;22.67;55.52;95774.72;107851;1285;22655;-75
2023/08/02 10:29:49;;;;;;;1.70;1.60;;;;;;;22.61;55.60;95775.06;107809;1283;22534;-76
2023/08/02 10:32:21;;;;;;;2.40;1.60;;;;;;;22.54;55.66;95777.18;107818;1279;22534;-76
2023/08/02 10:34:54;;;;;;;1.60;1.50;;;;;;;22.38;55.68;95781.48;107844;1285;22538;-76
2023/08/02 10:37:45;;;;;;;1.60;1.50;;;;;;;22.39;56.00;95776.16;107838;1284;26024;-75
2023/08/02 10:40:16;;;;;;;1.40;1.30;;;;;;;22.48;56.59;95774.60;107813;1285;23441;-75
2023/08/02 10:43:05;;;;;;;2.70;1.70;;;;;;;22.72;56.69;95768.59;107860;1285;22596;-76
2023/08/02 10:45:37;;;;;;;4.30;1.50;;;;;;;22.88;56.30;95763.06;107832;1284;22538;-76
2023/08/02 10:48:28;;;;;;;2.50;1.40;;;;;;;22.79;56.24;95762.68;107820;1284;24265;-75
2023/08/02 10:50:59;;;;;;;2.10;1.30;;;;;;;22.56;55.66;95757.83;107844;1284;22550;-75
2023/08/02 10:53:31;;;;;;;1.80;1.70;;;;;;;22.44;56.39;95757.27;107818;1268;22531;-75
2023/08/02 10:56:08;;;;;;;2.30;1.50;;;;;;;22.47;55.82;95754.45;107846;1279;22545;-75
2023/08/02 10:58:53;;;;;;;1.60;1.40;;;;;;;22.47;55.39;95752.21;107829;1284;24302;-75
2023/08/02 11:01:24;;;;;;;2.00;1.70;;;;;;;22.44;55.10;95740.70;107876;1277;23120;-76
2023/08/02 11:03:57;;;;;;;2.00;1.50;;;;;;;22.29;55.19;95743.13;107828;1283;22648;-76
2023/08/02 11:06:32;;;;;;;3.10;1.90;;;;;;;22.17;55.00;95741.50;107805;1284;22527;-76
2023/08/02 11:09:04;;;;;;;2.00;1.80;;;;;;;22.06;55.44;95739.79;107821;1283;22541;-76
2023/08/02 11:11:38;;;;;;;3.80;1.80;;;;;;;22.02;55.79;95741.65;107810;1284;22538;-76
2023/08/02 11:14:09;;;;;;;2.10;1.70;;;;;;;22.04;56.27;95740.06;107841;1284;22523;-76
2023/08/02 11:16:45;;;;;;;1.70;1.60;;;;;;;22.11;56.31;95729.19;107822;1284;22547;-76
2023/08/02 11:19:17;;;;;;;1.80;1.40;;;;;;;22.24;56.48;95729.20;107749;1285;22543;-76
2023/08/02 11:21:56;;;;;;;2.20;1.60;;;;;;;22.35;56.05;95727.35;107810;1285;22532;-76
2023/08/02 11:24:26;;;;;;;;;;;;;;;22.41;55.76;95727.40;107806;1285;22564;-76
2023/08/02 11:26:58;;;;;;;2.10;1.60;;;;;;;22.48;55.63;95730.30;107831;1280;21748;-76
2023/08/02 11:29:29;;;;;;;1.50;1.40;;;;;;;22.66;56.32;95727.56;107811;1285;22948;-76
2023/08/02 11:32:04;;;;;;;2.50;1.40;;;;;;;22.69;55.74;95722.10;107851;1284;22804;-76
2023/08/02 11:34:39;;;;;;;2.00;1.80;;;;;;;22.62;55.74;95716.80;107833;1284;22591;-76
2023/08/02 11:37:12;;;;;;;2.10;1.50;;;;;;;22.43;55.51;95719.70;107811;1280;25163;-75
2023/08/02 11:39:53;;;;;;;2.10;1.30;;;;;;;22.29;55.21;95715.35;107761;1285;25327;-76
2023/08/02 11:42:24;;;;;;;1.60;1.40;;;;;;;22.24;55.96;95717.25;107901;1285;22612;-76
2023/08/02 11:44:56;;;;;;;2.10;1.30;;;;;;;22.42;56.27;95721.31;107826;1285;24231;-76
2023/08/02 11:47:38;;;;;;;1.60;1.50;;;;;;;22.59;56.41;95713.23;107810;1285;23297;-76